Time;durP1;ratioP1;P1;durP2;ratioP2;P2;SDS_P1;SDS_P2;PMS_P1;PMS_P2;Temp;Humidity;BMP_temperature;BMP_pressure;BME280_temperature;BME280_humidity;BME280_pressure;Samples;Min_cycle;Max_cycle;Signal;HPM_P1;HPM_P2
2021/09/12 00:00:40;;;;;;;7.55;3.85;;;14.60;99.90;;;;;;4921742;29;20059;-92
2021/09/12 00:03:06;;;;;;;7.28;4.53;;;14.70;99.90;;;;;;4919707;29;20498;-93
2021/09/12 00:05:33;;;;;;;5.93;4.18;;;14.70;99.90;;;;;;4920377;29;20027;-92
2021/09/12 00:07:59;;;;;;;4.55;4.05;;;14.70;99.90;;;;;;4920742;29;20028;-93
2021/09/12 00:10:26;;;;;;;6.68;4.70;;;14.60;99.90;;;;;;4922992;29;20047;-94
2021/09/12 00:12:52;;;;;;;6.20;4.57;;;14.60;99.90;;;;;;4922945;29;20035;-91
2021/09/12 00:15:18;;;;;;;5.95;5.03;;;14.60;99.90;;;;;;4921098;29;20027;-93
2021/09/12 00:17:43;;;;;;;5.40;4.28;;;14.60;99.90;;;;;;4922610;29;20060;-92
2021/09/12 00:20:11;;;;;;;5.88;4.25;;;14.60;99.90;;;;;;4926517;29;20020;-92
2021/09/12 00:22:36;;;;;;;7.22;4.45;;;14.60;99.90;;;;;;4926215;29;20393;-94
2021/09/12 00:25:03;;;;;;;6.05;4.25;;;14.60;99.90;;;;;;4923808;29;20023;-92
2021/09/12 00:27:28;;;;;;;5.63;4.35;;;14.60;99.90;;;;;;4923902;29;20183;-92
2021/09/12 00:29:56;;;;;;;5.88;4.72;;;14.50;99.90;;;;;;4921261;29;20059;-94
2021/09/12 00:32:22;;;;;;;6.35;4.70;;;14.50;99.90;;;;;;4920991;29;20502;-93
2021/09/12 00:34:48;;;;;;;6.60;4.60;;;14.50;99.90;;;;;;4920365;29;20091;-92
2021/09/12 00:37:14;;;;;;;6.50;5.20;;;14.50;99.90;;;;;;4919917;29;20023;-93
2021/09/12 00:39:40;;;;;;;10.77;5.13;;;14.50;99.90;;;;;;4920497;29;20048;-93
2021/09/12 00:42:06;;;;;;;7.03;4.78;;;14.50;99.90;;;;;;4920964;29;20425;-93
2021/09/12 00:44:31;;;;;;;8.65;4.53;;;14.50;99.90;;;;;;4920719;29;20055;-92
2021/09/12 00:47:10;;;;;;;9.15;4.50;;;14.50;99.90;;;;;;4920905;29;20054;-92
2021/09/12 00:49:36;;;;;;;4.82;4.03;;;14.50;99.90;;;;;;4919648;29;20020;-94
2021/09/12 00:52:06;;;;;;;7.82;4.57;;;14.50;99.90;;;;;;4920403;29;20127;-93
2021/09/12 00:54:34;;;;;;;7.72;4.40;;;14.50;99.90;;;;;;4920426;29;20139;-92
2021/09/12 00:57:07;;;;;;;9.63;5.25;;;14.40;99.90;;;;;;4920087;29;20020;-94
2021/09/12 00:59:38;;;;;;;6.70;4.65;;;14.40;99.90;;;;;;4920012;29;20051;-93
2021/09/12 01:05:07;;;;;;;8.10;5.38;;;14.30;99.90;;;;;;4923756;29;20043;-92
2021/09/12 01:07:33;;;;;;;6.45;5.28;;;14.30;99.90;;;;;;4906721;29;20104;-93
2021/09/12 01:09:59;;;;;;;6.40;5.57;;;14.30;99.90;;;;;;4905049;29;20478;-91
2021/09/12 01:12:24;;;;;;;6.28;5.50;;;14.30;99.90;;;;;;4905138;29;20410;-93
2021/09/12 01:14:53;;;;;;;6.80;4.97;;;14.30;99.90;;;;;;4906386;29;20114;-92
2021/09/12 01:17:25;;;;;;;8.85;5.60;;;14.30;99.90;;;;;;4907224;29;20035;-93
2021/09/12 01:19:51;;;;;;;5.93;5.15;;;14.30;99.90;;;;;;4907428;29;20031;-93
2021/09/12 01:22:17;;;;;;;5.65;5.03;;;14.30;99.90;;;;;;4908195;29;20036;-93
2021/09/12 01:24:43;;;;;;;7.07;5.07;;;14.30;99.90;;;;;;4908896;29;20071;-93
2021/09/12 01:27:09;;;;;;;7.47;4.97;;;14.30;99.90;;;;;;4908925;29;20024;-93
2021/09/12 01:29:36;;;;;;;6.70;4.68;;;14.30;99.90;;;;;;4907037;29;20032;-91
2021/09/12 01:32:02;;;;;;;6.55;4.88;;;14.30;99.90;;;;;;4908716;29;20036;-93
2021/09/12 01:34:28;;;;;;;6.18;4.63;;;14.30;99.90;;;;;;4908871;29;20031;-92
2021/09/12 01:36:54;;;;;;;4.90;4.22;;;14.30;99.90;;;;;;4910630;29;20028;-96
2021/09/12 01:39:19;;;;;;;6.57;4.00;;;14.20;99.90;;;;;;4909231;29;20047;-93
2021/09/12 01:41:48;;;;;;;7.57;4.22;;;14.30;99.90;;;;;;4907169;29;20036;-96
2021/09/12 01:44:14;;;;;;;7.70;4.50;;;14.30;99.90;;;;;;4906735;29;20502;-92
2021/09/12 01:46:46;;;;;;;5.10;4.07;;;14.30;99.90;;;;;;4906958;29;20032;-93
2021/09/12 01:49:15;;;;;;;5.60;4.32;;;14.30;99.90;;;;;;4908113;29;20032;-93
2021/09/12 01:51:41;;;;;;;8.00;4.68;;;14.30;99.90;;;;;;4911458;29;20505;-93
2021/09/12 01:54:07;;;;;;;5.45;4.72;;;14.30;99.90;;;;;;4911507;29;20115;-93
2021/09/12 01:56:33;;;;;;;7.18;4.80;;;14.20;99.90;;;;;;4911539;29;20028;-95
2021/09/12 01:59:00;;;;;;;5.15;4.65;;;14.20;99.90;;;;;;4896438;29;20526;-93
2021/09/12 02:01:26;;;;;;;4.50;4.10;;;14.10;99.90;;;;;;4910948;29;20127;-93
2021/09/12 02:03:52;;;;;;;8.40;4.60;;;14.10;99.90;;;;;;4926864;29;20127;-92
2021/09/12 02:06:18;;;;;;;7.45;4.32;;;14.10;99.90;;;;;;4929070;29;20051;-93
2021/09/12 02:08:43;;;;;;;7.35;4.20;;;14.20;99.90;;;;;;4929398;29;20028;-94
2021/09/12 02:11:11;;;;;;;4.00;3.53;;;14.20;99.90;;;;;;4931528;29;20504;-95
2021/09/12 02:13:39;;;;;;;4.78;4.28;;;14.20;99.90;;;;;;4931375;29;20040;-94
2021/09/12 02:16:05;;;;;;;4.60;3.97;;;14.20;99.90;;;;;;4929244;29;20024;-92
2021/09/12 02:18:31;;;;;;;4.35;3.83;;;14.20;99.90;;;;;;4942123;29;20027;-94
2021/09/12 02:20:57;;;;;;;8.63;4.40;;;14.30;99.90;;;;;;4923975;29;20123;-95
2021/09/12 02:23:22;;;;;;;6.50;3.92;;;14.30;99.90;;;;;;4922789;29;20027;-93
2021/09/12 02:25:48;;;;;;;5.88;3.72;;;14.30;99.90;;;;;;4923722;29;20051;-92
2021/09/12 02:28:14;;;;;;;5.05;4.32;;;14.30;99.90;;;;;;4923468;29;20489;-93
2021/09/12 02:30:40;;;;;;;11.48;5.03;;;14.20;99.90;;;;;;4923345;29;20034;-93
2021/09/12 02:33:06;;;;;;;7.90;4.75;;;14.20;99.90;;;;;;4923204;29;20039;-93
2021/09/12 02:35:32;;;;;;;7.80;5.50;;;14.20;99.90;;;;;;4923400;29;20035;-93
2021/09/12 02:37:57;;;;;;;8.90;4.95;;;14.20;99.90;;;;;;4923944;29;20027;-93
2021/09/12 02:40:23;;;;;;;5.78;4.47;;;14.10;99.90;;;;;;4923334;29;20031;-93
2021/09/12 02:42:49;;;;;;;4.97;4.47;;;14.10;99.90;;;;;;4923118;29;20478;-93
2021/09/12 02:45:15;;;;;;;6.45;4.30;;;14.10;99.90;;;;;;4922628;29;20561;-95
2021/09/12 02:47:41;;;;;;;6.15;4.00;;;14.10;99.90;;;;;;4923206;29;20039;-94
2021/09/12 02:50:08;;;;;;;7.35;3.75;;;14.20;99.90;;;;;;4923145;29;20032;-94
2021/09/12 02:52:35;;;;;;;5.82;4.15;;;14.20;99.90;;;;;;4922902;29;20497;-92
2021/09/12 02:55:02;;;;;;;9.23;4.93;;;14.20;99.90;;;;;;4924605;29;20035;-93
2021/09/12 02:57:27;;;;;;;6.13;5.30;;;14.20;99.90;;;;;;4923409;29;20069;-93
2021/09/12 02:59:56;;;;;;;7.32;4.97;;;14.10;99.90;;;;;;4922255;29;20027;-94
2021/09/12 03:02:22;;;;;;;5.82;5.20;;;14.10;99.90;;;;;;4922660;29;20040;-93
2021/09/12 03:04:47;;;;;;;5.53;5.00;;;14.10;99.90;;;;;;4922765;29;20043;-93
2021/09/12 03:07:13;;;;;;;7.78;4.93;;;14.10;99.90;;;;;;4922065;29;20078;-93
2021/09/12 03:09:39;;;;;;;7.22;4.85;;;14.00;99.90;;;;;;4922488;29;20394;-93
2021/09/12 03:12:05;;;;;;;6.47;4.82;;;14.00;99.90;;;;;;4922525;29;20032;-93
2021/09/12 03:14:31;;;;;;;4.88;4.40;;;14.00;99.90;;;;;;4922475;29;20557;-94
2021/09/12 03:16:57;;;;;;;5.75;5.15;;;14.00;99.90;;;;;;4922628;29;20103;-93
2021/09/12 03:19:22;;;;;;;4.72;4.03;;;14.00;99.90;;;;;;4924739;29;20382;-95
2021/09/12 03:21:48;;;;;;;5.60;4.50;;;14.00;99.90;;;;;;4928858;29;20028;-93
2021/09/12 03:24:14;;;;;;;4.95;4.03;;;14.00;99.90;;;;;;4928208;29;20391;-93
2021/09/12 03:26:39;;;;;;;7.03;4.07;;;14.10;99.90;;;;;;4926807;29;20027;-94
2021/09/12 03:29:05;;;;;;;10.48;4.35;;;14.10;99.90;;;;;;4926733;29;20039;-94
2021/09/12 03:31:31;;;;;;;5.55;4.40;;;14.10;99.90;;;;;;4925431;29;20027;-95
2021/09/12 03:33:57;;;;;;;6.95;4.38;;;14.10;99.90;;;;;;4924665;29;20498;-96
2021/09/12 03:36:23;;;;;;;6.65;4.38;;;14.10;99.90;;;;;;4925597;29;20043;-92
2021/09/12 03:38:49;;;;;;;7.50;4.47;;;14.10;99.90;;;;;;4923499;29;20032;-93
2021/09/12 03:41:15;;;;;;;5.00;4.50;;;14.10;99.90;;;;;;4921152;29;20023;-93
2021/09/12 03:43:41;;;;;;;4.65;3.83;;;14.00;99.90;;;;;;4923101;29;20051;-95
2021/09/12 03:46:06;;;;;;;4.35;3.90;;;14.00;99.90;;;;;;4924880;29;20020;-94
2021/09/12 03:48:32;;;;;;;9.35;4.18;;;14.00;99.90;;;;;;4922747;29;20034;-95
2021/09/12 03:50:58;;;;;;;5.15;3.50;;;14.00;99.90;;;;;;4925052;29;20038;-95
2021/09/12 03:53:24;;;;;;;6.13;4.28;;;14.00;99.90;;;;;;4923393;29;20036;-96
2021/09/12 03:55:49;;;;;;;14.65;4.18;;;14.00;99.90;;;;;;4926697;29;20390;-96
2021/09/12 03:58:15;;;;;;;9.73;4.13;;;14.00;99.90;;;;;;4924635;29;20038;-96
2021/09/12 04:00:41;;;;;;;8.18;4.20;;;13.90;99.90;;;;;;4924397;29;20035;-92
2021/09/12 04:03:06;;;;;;;7.25;4.50;;;13.90;99.90;;;;;;4923184;29;20558;-95
2021/09/12 04:05:32;;;;;;;6.45;4.43;;;13.90;99.90;;;;;;4925975;29;20024;-95
2021/09/12 04:07:58;;;;;;;6.55;4.88;;;13.90;99.90;;;;;;4921664;29;20031;-94
2021/09/12 04:10:24;;;;;;;5.93;4.68;;;13.90;99.90;;;;;;4921005;29;20456;-94
2021/09/12 04:12:50;;;;;;;8.23;4.60;;;13.80;99.90;;;;;;4932790;29;20126;-95
2021/09/12 04:15:15;;;;;;;9.13;4.55;;;13.80;99.90;;;;;;4927490;29;20055;-93
2021/09/12 04:17:41;;;;;;;6.93;4.15;;;13.80;99.90;;;;;;4923183;29;20539;-95
2021/09/12 04:20:08;;;;;;;7.30;4.22;;;13.80;99.90;;;;;;4923486;29;20111;-94
2021/09/12 04:22:35;;;;;;;5.68;4.65;;;13.70;99.90;;;;;;4924406;29;20036;-92
2021/09/12 04:25:04;;;;;;;8.10;4.78;;;13.70;99.90;;;;;;4927027;29;20541;-94
2021/09/12 04:27:29;;;;;;;6.05;4.45;;;13.70;99.90;;;;;;4928169;29;20035;-93
2021/09/12 04:29:55;;;;;;;5.65;3.80;;;13.70;99.90;;;;;;4927985;29;20039;-95
2021/09/12 04:32:21;;;;;;;8.05;3.92;;;13.70;99.90;;;;;;4928561;29;20036;-95
2021/09/12 04:34:47;;;;;;;7.70;3.97;;;13.70;99.90;;;;;;4928937;29;20032;-95
2021/09/12 04:37:16;;;;;;;4.97;3.92;;;13.70;99.90;;;;;;4931964;29;20032;-92
2021/09/12 04:39:42;;;;;;;6.72;3.88;;;13.70;99.90;;;;;;4925876;29;20027;-95
2021/09/12 04:42:08;;;;;;;6.18;4.57;;;13.60;99.90;;;;;;4928025;29;20442;-94
2021/09/12 04:44:34;;;;;;;5.65;4.00;;;13.60;99.90;;;;;;4927369;29;20091;-93
2021/09/12 04:47:03;;;;;;;5.53;4.13;;;13.60;99.90;;;;;;4927141;29;20914;-95
2021/09/12 04:49:30;;;;;;;6.03;3.42;;;13.60;99.90;;;;;;4929011;29;20059;-94
2021/09/12 04:51:56;;;;;;;13.30;4.65;;;13.60;99.90;;;;;;4910525;29;20032;-95
2021/09/12 04:54:22;;;;;;;4.45;3.55;;;13.50;99.90;;;;;;4908510;29;20035;-95
2021/09/12 04:56:47;;;;;;;5.28;3.80;;;13.50;99.90;;;;;;4924666;29;20031;-94
2021/09/12 04:59:13;;;;;;;4.40;3.20;;;13.50;99.90;;;;;;4924489;29;20031;-94
2021/09/12 05:01:39;;;;;;;6.10;3.20;;;13.40;99.90;;;;;;4924496;29;20020;-94
2021/09/12 05:04:05;;;;;;;5.18;3.17;;;13.40;99.90;;;;;;4925159;29;20048;-96
2021/09/12 05:06:31;;;;;;;4.75;3.05;;;13.30;99.90;;;;;;4942709;29;20040;-95
2021/09/12 05:08:57;;;;;;;8.38;4.30;;;13.30;99.90;;;;;;4925787;29;20103;-94
2021/09/12 05:11:22;;;;;;;8.30;3.42;;;13.30;99.90;;;;;;4924763;29;20454;-94
2021/09/12 05:13:48;;;;;;;5.88;3.05;;;13.20;99.90;;;;;;4925582;29;20051;-93
2021/09/12 05:16:14;;;;;;;6.05;3.30;;;13.20;99.90;;;;;;4924068;29;20028;-94
2021/09/12 05:18:40;;;;;;;6.15;3.13;;;13.20;99.90;;;;;;4924896;29;20474;-95
2021/09/12 05:21:06;;;;;;;4.20;3.20;;;13.20;99.90;;;;;;4924202;29;20091;-94
2021/09/12 05:23:32;;;;;;;3.65;3.20;;;13.10;99.90;;;;;;4909034;29;20036;-96
2021/09/12 05:25:57;;;;;;;4.82;3.50;;;13.10;99.90;;;;;;4926755;29;20028;-92
2021/09/12 05:28:23;;;;;;;6.68;4.80;;;13.10;99.90;;;;;;4925396;29;20024;-94
2021/09/12 05:30:49;;;;;;;7.65;5.50;;;13.10;99.90;;;;;;4925186;29;20024;-93
2021/09/12 05:33:15;;;;;;;8.80;5.80;;;13.00;99.90;;;;;;4925118;29;20378;-93
2021/09/12 05:35:41;;;;;;;9.18;5.70;;;13.00;99.90;;;;;;4924819;29;20019;-94
2021/09/12 05:38:07;;;;;;;8.50;5.70;;;13.00;99.90;;;;;;4925354;29;20038;-93
2021/09/12 05:40:33;;;;;;;6.22;5.43;;;12.90;99.90;;;;;;4924529;29;20038;-94
2021/09/12 05:42:59;;;;;;;9.35;5.88;;;12.90;99.90;;;;;;4922605;29;20118;-93
2021/09/12 05:45:25;;;;;;;9.27;5.68;;;13.00;99.90;;;;;;4922495;29;20031;-93
2021/09/12 05:47:51;;;;;;;10.82;5.60;;;13.00;99.90;;;;;;4922927;29;20034;-94
2021/09/12 05:50:16;;;;;;;6.80;5.97;;;13.00;99.90;;;;;;4922697;29;20024;-94
2021/09/12 05:52:42;;;;;;;8.93;5.57;;;13.00;99.90;;;;;;4922009;29;20046;-94
2021/09/12 05:55:09;;;;;;;6.40;4.60;;;13.00;99.90;;;;;;4922291;29;20126;-94
2021/09/12 05:57:34;;;;;;;9.50;6.15;;;13.00;99.90;;;;;;4921853;29;20114;-94
2021/09/12 06:00:01;;;;;;;8.05;4.95;;;13.00;99.90;;;;;;4921804;29;20512;-92
2021/09/12 06:02:27;;;;;;;9.65;5.78;;;13.00;99.90;;;;;;4922846;29;20051;-94
2021/09/12 06:04:53;;;;;;;7.15;5.63;;;13.00;99.90;;;;;;4920934;29;20489;-95
2021/09/12 06:07:18;;;;;;;5.85;5.18;;;13.00;99.90;;;;;;4923252;29;20020;-93
2021/09/12 06:09:47;;;;;;;7.40;5.93;;;13.00;99.90;;;;;;4922812;29;20041;-94
2021/09/12 06:12:16;;;;;;;8.48;5.93;;;12.90;99.90;;;;;;4923358;29;20031;-94
2021/09/12 06:14:42;;;;;;;9.23;5.55;;;13.00;99.90;;;;;;4921890;29;20103;-94
2021/09/12 06:17:10;;;;;;;8.00;5.90;;;13.00;99.90;;;;;;4922815;29;20028;-94
2021/09/12 06:19:37;;;;;;;10.13;5.32;;;13.00;99.90;;;;;;4924029;29;20030;-95
2021/09/12 06:22:04;;;;;;;8.25;6.03;;;12.90;99.90;;;;;;4926280;29;20019;-94
2021/09/12 06:24:30;;;;;;;6.50;4.90;;;12.90;99.90;;;;;;4924751;29;20508;-94
2021/09/12 06:26:55;;;;;;;7.55;5.57;;;12.90;99.90;;;;;;4926901;29;20032;-95
2021/09/12 06:29:21;;;;;;;7.57;5.38;;;12.90;99.90;;;;;;4926020;29;20487;-94
2021/09/12 06:31:48;;;;;;;6.57;5.05;;;12.90;99.90;;;;;;4925155;29;20028;-94
2021/09/12 06:34:14;;;;;;;8.50;5.10;;;12.90;99.90;;;;;;4923890;29;20035;-93
2021/09/12 06:36:40;;;;;;;8.93;5.15;;;13.00;99.90;;;;;;4924801;29;20548;-94
2021/09/12 06:39:05;;;;;;;10.45;4.18;;;13.00;99.90;;;;;;4924756;29;20043;-95
2021/09/12 06:41:31;;;;;;;5.03;4.00;;;13.10;99.90;;;;;;4924300;29;20026;-95
2021/09/12 06:48:47;;;;;;;9.82;4.55;;;13.20;99.90;;;;;;4930474;23;20126;-95
2021/09/12 06:51:14;;;;;;;6.72;4.95;;;13.20;99.90;;;;;;4920031;29;20034;-95
2021/09/12 06:53:40;;;;;;;8.35;5.13;;;13.20;99.90;;;;;;4936449;29;20050;-94
2021/09/12 06:56:06;;;;;;;10.30;4.97;;;13.30;99.90;;;;;;4922426;29;20076;-94
2021/09/12 06:58:44;;;;;;;8.68;4.45;;;13.30;99.90;;;;;;4921744;29;20128;-95
2021/09/12 07:01:09;;;;;;;6.15;4.20;;;13.40;99.90;;;;;;4902054;29;20188;-96
2021/09/12 07:03:35;;;;;;;11.15;4.15;;;13.40;99.90;;;;;;4902614;29;20471;-94
2021/09/12 07:06:02;;;;;;;5.80;4.30;;;13.50;99.90;;;;;;4901852;29;20051;-94
2021/09/12 07:08:28;;;;;;;15.70;7.78;;;13.50;99.90;;;;;;4900945;29;20028;-94
2021/09/12 07:10:56;;;;;;;5.65;4.43;;;13.60;99.90;;;;;;4901217;29;20054;-95
2021/09/12 07:13:22;;;;;;;8.35;5.45;;;13.70;99.90;;;;;;4900269;29;20060;-95
2021/09/12 07:15:47;;;;;;;10.52;5.88;;;13.70;99.90;;;;;;4900617;29;20055;-93
2021/09/12 07:18:13;;;;;;;6.75;5.07;;;13.80;99.90;;;;;;4900403;29;20084;-93
2021/09/12 07:20:39;;;;;;;9.23;6.40;;;13.80;99.90;;;;;;4900826;29;20115;-93
2021/09/12 07:23:06;;;;;;;9.60;6.00;;;13.80;99.90;;;;;;4900448;29;20501;-94
2021/09/12 07:25:35;;;;;;;6.32;4.82;;;13.80;99.90;;;;;;4900655;29;20028;-94
2021/09/12 07:28:01;;;;;;;8.98;5.30;;;13.90;99.90;;;;;;4901122;29;20039;-93
2021/09/12 07:30:26;;;;;;;7.55;5.50;;;14.00;99.90;;;;;;4900981;29;20022;-93
2021/09/12 07:32:52;;;;;;;7.20;4.75;;;14.00;99.90;;;;;;4903502;29;20068;-95
2021/09/12 07:35:18;;;;;;;5.82;4.00;;;14.10;99.90;;;;;;4902256;29;20032;-94
2021/09/12 07:37:43;;;;;;;7.72;4.80;;;14.10;99.90;;;;;;4905203;29;20043;-95
2021/09/12 07:40:10;;;;;;;5.78;3.83;;;14.10;99.90;;;;;;4900444;29;20612;-95
2021/09/12 07:42:36;;;;;;;4.38;3.33;;;14.20;99.90;;;;;;4899725;29;20024;-95
2021/09/12 07:45:07;;;;;;;6.80;3.53;;;14.30;99.90;;;;;;4899132;29;20501;-94
2021/09/12 07:47:33;;;;;;;6.10;3.38;;;14.30;99.90;;;;;;4893844;29;20024;-94
2021/09/12 07:52:24;;;;;;;5.18;2.90;;;14.50;99.90;;;;;;4930750;29;20059;-90
2021/09/12 07:54:50;;;;;;;3.85;2.80;;;14.60;99.90;;;;;;4919070;29;20408;-91
2021/09/12 07:57:16;;;;;;;6.40;2.90;;;14.60;99.90;;;;;;4936916;29;20031;-91
2021/09/12 08:04:48;;;;;;;6.95;2.70;;;14.90;99.90;;;;;;5060455;23;20585;-91
2021/09/12 08:07:14;;;;;;;4.93;2.63;;;14.90;99.90;;;;;;4893517;29;20040;-89
2021/09/12 08:14:44;;;;;;;7.80;3.83;;;15.10;99.90;;;;;;4947491;29;20054;-92
2021/09/12 08:17:10;;;;;;;4.63;3.20;;;15.20;99.90;;;;;;4936499;29;20035;-92
2021/09/12 08:19:36;;;;;;;3.83;3.03;;;15.20;99.90;;;;;;4931807;28;20045;-92
2021/09/12 08:22:02;;;;;;;3.60;2.33;;;15.30;99.90;;;;;;4953119;28;20365;-92
2021/09/12 08:24:27;;;;;;;5.18;2.92;;;15.30;99.90;;;;;;4942272;28;20365;-91
2021/09/12 08:26:54;;;;;;;5.65;2.70;;;15.30;99.90;;;;;;4956316;28;20110;-92
2021/09/12 08:29:20;;;;;;;5.22;2.30;;;15.30;99.90;;;;;;4941970;29;20392;-91
2021/09/12 08:31:45;;;;;;;3.38;2.22;;;15.40;99.90;;;;;;4948646;28;20045;-91
2021/09/12 08:34:11;;;;;;;3.75;2.30;;;15.40;99.90;;;;;;4953250;28;20034;-93
2021/09/12 08:36:37;;;;;;;4.65;2.42;;;15.40;99.90;;;;;;4942213;28;20032;-92
2021/09/12 08:39:03;;;;;;;4.45;2.40;;;15.50;99.90;;;;;;4926006;29;20036;-91
2021/09/12 08:41:31;;;;;;;3.78;2.40;;;15.60;99.90;;;;;;4943519;29;20023;-93
2021/09/12 08:43:59;;;;;;;5.80;3.35;;;15.60;99.90;;;;;;4950798;28;20086;-91
2021/09/12 08:46:24;;;;;;;3.50;2.70;;;15.80;99.90;;;;;;4936430;29;20039;-91
2021/09/12 08:48:51;;;;;;;4.07;3.00;;;15.90;99.90;;;;;;4937565;29;20073;-91
2021/09/12 08:51:16;;;;;;;7.50;3.03;;;15.90;99.90;;;;;;4936314;29;20035;-92
2021/09/12 08:53:42;;;;;;;3.72;2.92;;;16.10;99.90;;;;;;4954406;29;20023;-92
2021/09/12 08:56:09;;;;;;;9.23;2.70;;;16.20;99.90;;;;;;4955028;29;20050;-93
2021/09/12 08:58:34;;;;;;;4.78;2.97;;;16.30;99.90;;;;;;4954808;29;20090;-91
2021/09/12 09:01:01;;;;;;;7.38;2.70;;;16.30;99.90;;;;;;4937595;29;20421;-91
2021/09/12 09:03:38;;;;;;;6.40;2.30;;;16.40;99.90;;;;;;4954540;29;20032;-90
2021/09/12 09:06:19;;;;;;;4.75;2.47;;;16.50;99.90;;;;;;4945272;29;20119;-90
2021/09/12 09:09:07;;;;;;;8.50;2.58;;;16.60;99.90;;;;;;4949569;28;20155;-89
2021/09/12 09:11:39;;;;;;;11.57;2.15;;;16.70;99.90;;;;;;4939357;29;20032;-90
2021/09/12 09:14:18;;;;;;;14.65;2.70;;;16.80;99.90;;;;;;4956520;28;20039;-90
2021/09/12 09:16:46;;;;;;;2.47;1.73;;;16.90;99.90;;;;;;4951933;28;20026;-90
2021/09/12 09:19:12;;;;;;;6.63;1.63;;;17.10;99.90;;;;;;4956429;28;20045;-91
2021/09/12 09:21:40;;;;;;;11.05;1.60;;;17.20;99.90;;;;;;4956161;28;20701;-90
2021/09/12 09:24:12;;;;;;;3.20;1.30;;;17.30;99.90;;;;;;4955982;28;20574;-91
2021/09/12 09:26:46;;;;;;;5.72;1.55;;;17.50;99.90;;;;;;4946319;28;20038;-90
2021/09/12 09:29:13;;;;;;;3.53;1.15;;;17.70;99.90;;;;;;4945946;28;20018;-89
2021/09/12 09:31:40;;;;;;;1.38;1.20;;;17.80;99.90;;;;;;4946119;28;20027;-94
2021/09/12 09:34:20;;;;;;;1.27;1.17;;;17.90;99.90;;;;;;4932149;29;20025;-90
2021/09/12 09:36:48;;;;;;;9.65;1.20;;;18.00;99.90;;;;;;4930951;29;20034;-90
2021/09/12 09:39:37;;;;;;;3.53;1.20;;;18.00;99.90;;;;;;4929128;29;20031;-90
2021/09/12 09:42:03;;;;;;;2.72;1.63;;;18.10;99.90;;;;;;4936212;29;20046;-92
2021/09/12 09:44:29;;;;;;;1.75;1.23;;;18.10;99.90;;;;;;4927925;29;20027;-89
2021/09/12 09:46:55;;;;;;;3.75;1.17;;;18.10;99.90;;;;;;4929344;29;20091;-91
2021/09/12 09:49:26;;;;;;;5.82;1.40;;;18.00;99.90;;;;;;4928810;29;20027;-91
2021/09/12 09:51:54;;;;;;;1.55;1.20;;;18.00;99.90;;;;;;4950638;29;20034;-91
2021/09/12 09:54:24;;;;;;;1.10;1.00;;;18.00;99.90;;;;;;4930030;29;20088;-90
2021/09/12 09:56:51;;;;;;;3.80;1.10;;;18.00;99.90;;;;;;4930845;29;20035;-91
2021/09/12 09:59:20;;;;;;;1.27;0.90;;;18.00;99.90;;;;;;4928864;29;20027;-91
2021/09/12 10:01:51;;;;;;;2.13;1.13;;;18.00;99.90;;;;;;4930625;29;20027;-91
2021/09/12 10:04:21;;;;;;;3.80;0.90;;;18.20;99.90;;;;;;4930001;29;20058;-90
2021/09/12 10:06:48;;;;;;;2.65;1.40;;;18.20;99.90;;;;;;4926719;29;20087;-91
2021/09/12 10:09:16;;;;;;;1.50;1.40;;;18.30;99.90;;;;;;4927868;29;20512;-92
2021/09/12 10:12:00;;;;;;;2.13;1.08;;;18.30;99.90;;;;;;4927446;29;20040;-92
2021/09/12 10:14:34;;;;;;;2.65;1.20;;;18.40;99.90;;;;;;4940138;29;20091;-91
2021/09/12 10:17:01;;;;;;;3.17;1.40;;;18.50;99.90;;;;;;4947783;29;20035;-92
2021/09/12 10:19:31;;;;;;;1.98;1.40;;;18.60;99.50;;;;;;4927881;28;20037;-92
2021/09/12 10:22:00;;;;;;;7.25;2.13;;;18.70;98.90;;;;;;4944194;29;20032;-90
2021/09/12 10:24:25;;;;;;;1.55;1.00;;;18.80;98.80;;;;;;4946460;28;20549;-90
2021/09/12 10:26:51;;;;;;;1.88;1.08;;;18.90;98.80;;;;;;4945877;28;20031;-89
2021/09/12 10:29:46;;;;;;;2.45;1.20;;;18.90;98.10;;;;;;4947677;28;20048;-91
2021/09/12 10:32:31;;;;;;;1.30;1.20;;;18.90;97.40;;;;;;4947565;29;20031;-91
2021/09/12 10:35:16;;;;;;;2.28;1.30;;;18.90;97.20;;;;;;4924046;29;20042;-92
2021/09/12 10:37:56;;;;;;;2.90;1.30;;;19.00;97.10;;;;;;4931542;29;20027;-92
2021/09/12 10:40:22;;;;;;;1.10;1.00;;;19.00;96.90;;;;;;4939814;29;20047;-91
2021/09/12 10:42:47;;;;;;;1.52;1.42;;;19.00;96.80;;;;;;4936471;29;20043;-91
2021/09/12 10:45:25;;;;;;;2.97;0.98;;;19.00;96.70;;;;;;4930581;29;20035;-92
2021/09/12 10:47:52;;;;;;;2.08;1.25;;;19.10;96.40;;;;;;4922889;29;20087;-91
2021/09/12 10:50:44;;;;;;;3.80;1.33;;;19.10;96.30;;;;;;4923745;29;20389;-90
2021/09/12 10:53:11;;;;;;;3.08;1.23;;;19.10;96.00;;;;;;4918796;29;20035;-91
2021/09/12 10:56:02;;;;;;;2.85;1.50;;;19.10;96.00;;;;;;4920763;29;20055;-90
2021/09/12 10:58:30;;;;;;;10.95;4.90;;;19.10;95.70;;;;;;4920410;29;20028;-90
2021/09/12 11:00:57;;;;;;;2.55;1.08;;;19.10;95.50;;;;;;4934403;29;20036;-91
2021/09/12 11:03:24;;;;;;;1.25;0.90;;;19.10;95.20;;;;;;4939157;29;20039;-88
2021/09/12 11:05:49;;;;;;;2.17;1.20;;;19.10;94.80;;;;;;4956553;29;20030;-91
2021/09/12 11:08:15;;;;;;;1.67;1.13;;;19.00;94.30;;;;;;4956166;29;20031;-91
2021/09/12 11:10:42;;;;;;;1.90;1.38;;;19.00;94.10;;;;;;4964473;28;20050;-89
2021/09/12 11:13:08;;;;;;;1.15;0.98;;;19.00;93.90;;;;;;4958037;28;20058;-90
2021/09/12 11:15:34;;;;;;;1.55;1.15;;;19.00;93.70;;;;;;4958101;28;20034;-90
2021/09/12 11:18:01;;;;;;;5.88;1.00;;;19.00;93.40;;;;;;4957475;28;20500;-90
2021/09/12 11:20:44;;;;;;;2.13;1.30;;;18.90;93.30;;;;;;4962744;28;20020;-90
2021/09/12 11:23:10;;;;;;;1.45;1.25;;;18.90;93.10;;;;;;4967940;28;20046;-89
2021/09/12 11:25:37;;;;;;;6.30;1.20;;;19.00;93.40;;;;;;4932396;29;20027;-90
2021/09/12 11:28:09;;;;;;;2.83;1.20;;;19.00;93.00;;;;;;4930204;29;20062;-90
2021/09/12 11:30:39;;;;;;;1.33;0.90;;;19.00;93.20;;;;;;4951007;28;20019;-89
2021/09/12 11:33:04;;;;;;;2.28;0.98;;;18.90;92.80;;;;;;4946533;29;20031;-90
2021/09/12 11:35:30;;;;;;;1.05;0.95;;;18.80;92.80;;;;;;4943146;29;20032;-90
2021/09/12 11:38:06;;;;;;;3.03;1.05;;;18.70;92.30;;;;;;4921034;29;20035;-88
2021/09/12 11:40:32;;;;;;;2.25;1.00;;;18.60;92.40;;;;;;4945730;29;20031;-89
2021/09/12 11:43:16;;;;;;;3.03;1.00;;;18.60;92.70;;;;;;4932095;29;20043;-90
2021/09/12 11:45:42;;;;;;;1.73;1.00;;;18.50;92.50;;;;;;4956176;28;20046;-89
2021/09/12 11:48:08;;;;;;;2.78;0.90;;;18.40;92.70;;;;;;4967110;28;20027;-90
2021/09/12 11:50:34;;;;;;;2.50;0.70;;;18.40;92.90;;;;;;4948891;28;20121;-89
2021/09/12 11:53:09;;;;;;;2.42;0.85;;;18.40;92.90;;;;;;4943506;29;20069;-90
2021/09/12 11:55:40;;;;;;;1.98;1.38;;;18.40;93.10;;;;;;4939050;29;20031;-88
2021/09/12 11:58:07;;;;;;;2.35;0.82;;;18.40;93.20;;;;;;4938959;29;20031;-89
2021/09/12 12:00:38;;;;;;;2.88;0.93;;;18.40;93.50;;;;;;4938963;29;20027;-89
2021/09/12 12:03:04;;;;;;;1.27;0.98;;;18.30;93.10;;;;;;4955575;29;20038;-91
2021/09/12 12:05:31;;;;;;;5.30;1.05;;;18.30;93.10;;;;;;4939089;29;20031;-90
2021/09/12 12:08:05;;;;;;;2.10;0.68;;;18.20;93.00;;;;;;4939195;29;20032;-89
2021/09/12 12:10:35;;;;;;;2.30;1.23;;;18.20;93.00;;;;;;4938618;29;20023;-90
2021/09/12 12:13:01;;;;;;;2.45;0.93;;;18.10;93.00;;;;;;4938126;29;20082;-88
2021/09/12 12:15:35;;;;;;;6.18;2.33;;;18.10;93.30;;;;;;4946850;28;20288;-88
2021/09/12 12:18:07;;;;;;;3.00;1.77;;;18.10;93.80;;;;;;4941878;29;20500;-87
2021/09/12 12:20:34;;;;;;;6.95;1.90;;;18.10;94.20;;;;;;4944487;29;20031;-87
2021/09/12 12:23:21;;;;;;;2.53;1.20;;;18.00;94.50;;;;;;4923788;29;20039;-88
2021/09/12 12:25:49;;;;;;;5.15;1.60;;;18.00;94.70;;;;;;4928043;29;20077;-87
2021/09/12 12:28:23;;;;;;;1.75;1.02;;;18.00;94.90;;;;;;4927580;29;20396;-86
2021/09/12 12:31:16;;;;;;;2.72;1.33;;;18.00;95.10;;;;;;4927928;29;20023;-86
2021/09/12 12:33:45;;;;;;;3.03;1.60;;;18.00;95.40;;;;;;4928238;29;20027;-87
2021/09/12 12:36:11;;;;;;;1.40;1.25;;;18.00;95.60;;;;;;4925473;29;20056;-86
2021/09/12 12:38:38;;;;;;;3.22;1.20;;;18.00;95.80;;;;;;4925300;29;20664;-87
2021/09/12 12:41:15;;;;;;;2.33;1.17;;;18.00;95.90;;;;;;4936141;28;20019;-87
2021/09/12 12:43:42;;;;;;;2.83;1.20;;;18.00;96.00;;;;;;4939865;28;20377;-87
2021/09/12 12:46:08;;;;;;;2.58;1.30;;;17.90;96.10;;;;;;4943949;29;20034;-89
2021/09/12 12:48:39;;;;;;;5.30;2.15;;;17.90;96.10;;;;;;4923776;29;20035;-89
2021/09/12 12:51:19;;;;;;;2.95;1.15;;;17.90;96.10;;;;;;4918698;29;20035;-89
2021/09/12 12:53:46;;;;;;;2.55;1.10;;;17.90;96.20;;;;;;4918339;29;20027;-89
2021/09/12 12:56:16;;;;;;;3.15;1.02;;;17.90;96.20;;;;;;4930642;28;20055;-89
2021/09/12 12:58:43;;;;;;;2.65;1.20;;;17.80;96.20;;;;;;4952787;28;20066;-89
2021/09/12 13:01:09;;;;;;;2.97;1.02;;;17.80;96.30;;;;;;4943825;29;20031;-89
2021/09/12 13:03:36;;;;;;;1.83;1.00;;;17.70;96.40;;;;;;4937840;28;20039;-88
2021/09/12 13:06:09;;;;;;;2.42;1.67;;;17.70;96.60;;;;;;4945342;29;20031;-88
2021/09/12 13:08:35;;;;;;;1.95;1.30;;;17.70;96.90;;;;;;4941161;29;20035;-88